createdAt,value
2022-12-18T04:09:07.553Z,100055.75
2022-12-18T04:12:21.958Z,100051.69
2022-12-18T04:15:36.692Z,100057.78
2022-12-18T04:18:48.003Z,100050.22
2022-12-18T04:21:58.307Z,100058.25
2022-12-18T04:25:13.054Z,100047.00
2022-12-18T04:28:32.160Z,100043.72
2022-12-18T04:31:41.866Z,100041.41
2022-12-18T04:34:52.625Z,100043.84
2022-12-18T04:38:02.480Z,100044.25
2022-12-18T04:41:13.492Z,100049.53
2022-12-18T04:44:24.615Z,100047.72
2022-12-18T04:47:34.280Z,100051.25
2022-12-18T04:50:43.993Z,100058.06
2022-12-18T04:53:53.711Z,100061.34
2022-12-18T04:57:04.849Z,100059.03
2022-12-18T05:00:15.251Z,100058.72
2022-12-18T05:03:25.089Z,100052.69
2022-12-18T05:06:34.867Z,100067.00
2022-12-18T05:09:47.191Z,100080.69
2022-12-18T05:13:01.361Z,100070.19
2022-12-18T05:16:11.526Z,100069.28
2022-12-18T05:19:21.353Z,100057.66
2022-12-18T05:22:31.029Z,100067.09
2022-12-18T05:25:40.700Z,100064.47
2022-12-18T05:28:52.617Z,100066.03
2022-12-18T05:32:02.304Z,100066.56
2022-12-18T05:35:12.947Z,100066.19
2022-12-18T05:38:24.261Z,100062.78
2022-12-18T05:41:33.972Z,100056.88
2022-12-18T05:44:45.360Z,100066.59
2022-12-18T05:47:55.009Z,100069.44
2022-12-18T05:51:08.226Z,100072.19
2022-12-18T05:54:17.972Z,100080.06
2022-12-18T05:57:27.662Z,100076.78
2022-12-18T06:00:40.930Z,100083.19
2022-12-18T06:38:11.567Z,100126.91
2022-12-18T06:41:23.065Z,100127.81
2022-12-18T06:44:32.750Z,100127.53
2022-12-18T06:47:42.447Z,100114.19
2022-12-18T06:50:52.127Z,100114.06
2022-12-18T06:54:03.123Z,100112.78
2022-12-18T06:57:12.839Z,100112.88
2022-12-18T07:00:22.581Z,100106.34
2022-12-18T07:03:33.060Z,100112.38
2022-12-18T07:06:42.773Z,100116.25
2022-12-18T07:09:53.832Z,100114.34
2022-12-18T07:13:03.787Z,100123.53
2022-12-18T07:16:18.638Z,100107.47
2022-12-18T07:19:32.904Z,100112.47
2022-12-18T07:22:42.640Z,100118.47
2022-12-18T07:25:53.557Z,100124.94
2022-12-18T07:29:03.334Z,100124.31
2022-12-18T07:32:13.019Z,100132.94
2022-12-18T07:35:25.362Z,100136.59
2022-12-18T07:38:36.702Z,100149.94
2022-12-18T07:42:07.757Z,100158.22
2022-12-18T07:45:17.598Z,100158.94
2022-12-18T07:48:27.415Z,100154.78
2022-12-18T07:51:37.027Z,100158.22
2022-12-18T07:54:46.842Z,100160.34
2022-12-18T07:58:01.011Z,100158.13
2022-12-18T08:01:12.676Z,100142.03
2022-12-18T08:04:22.348Z,100133.13
2022-12-18T08:07:32.062Z,100140.56
2022-12-18T08:10:41.952Z,100148.44
2022-12-18T08:13:53.247Z,100166.91
2022-12-18T08:17:02.988Z,100163.66
2022-12-18T08:20:14.858Z,100150.16
2022-12-18T08:23:27.584Z,100138.13
2022-12-18T08:26:38.646Z,100132.53
2022-12-18T08:29:49.571Z,100130.19
2022-12-18T08:32:59.267Z,100127.00
2022-12-18T08:36:10.934Z,100128.09
2022-12-18T08:39:20.595Z,100119.84
2022-12-18T08:42:44.178Z,100107.34
2022-12-18T08:45:55.817Z,100103.75
2022-12-18T08:49:06.096Z,100097.94
2022-12-18T08:52:16.776Z,100095.22
2022-12-18T08:55:26.546Z,100087.25
2022-12-18T08:58:36.229Z,100092.50
2022-12-18T09:01:48.139Z,100093.53
2022-12-18T09:04:58.002Z,100088.94
2022-12-18T09:08:07.786Z,100088.22
2022-12-18T09:11:21.939Z,100082.63
2022-12-18T09:14:31.560Z,100080.47
2022-12-18T09:17:42.568Z,100081.13
2022-12-18T09:20:53.607Z,100089.50
2022-12-18T09:24:03.262Z,100102.09
2022-12-18T09:27:15.863Z,100101.16
2022-12-18T09:30:25.499Z,100111.13
2022-12-18T09:33:37.470Z,100105.13
2022-12-18T09:36:47.795Z,100103.19
2022-12-18T09:39:57.918Z,100111.56
2022-12-18T09:43:12.713Z,100109.75
2022-12-18T09:46:28.689Z,100109.56
2022-12-18T09:49:44.523Z,100102.00
2022-12-18T09:52:58.834Z,100102.41
2022-12-18T09:56:17.989Z,100098.03
2022-12-18T09:59:36.894Z,100100.59
2022-12-18T10:02:47.919Z,100108.03
2022-12-18T10:06:08.027Z,100096.13
2022-12-18T10:09:29.163Z,100099.34
2022-12-18T10:12:47.952Z,100085.59
2022-12-18T10:16:10.857Z,100079.97
2022-12-18T10:19:36.956Z,100074.25
2022-12-18T10:22:57.364Z,100077.00
2022-12-18T10:26:08.446Z,100061.63
2022-12-18T10:29:18.911Z,100047.66
2022-12-18T10:32:31.026Z,100053.91
2022-12-18T10:35:44.108Z,100057.31
2022-12-18T10:38:55.069Z,100062.13
2022-12-18T10:42:13.906Z,100062.84
2022-12-18T10:45:23.724Z,100069.00
2022-12-18T10:48:35.472Z,100072.84
2022-12-18T10:51:45.246Z,100076.84
2022-12-18T10:54:59.424Z,100092.59
2022-12-18T10:58:26.593Z,100091.28
2022-12-18T11:01:50.512Z,100095.28
2022-12-18T11:05:00.294Z,100088.03
2022-12-18T11:08:23.608Z,100099.84
2022-12-18T11:11:35.218Z,100083.41
2022-12-18T11:14:48.862Z,100067.28
2022-12-18T11:17:59.217Z,100059.69
2022-12-18T11:21:11.053Z,100049.66
2022-12-18T11:24:27.134Z,100051.59
2022-12-18T11:27:39.464Z,100043.00
2022-12-18T11:30:49.141Z,100056.13
2022-12-18T11:37:34.828Z,100067.63
2022-12-18T11:40:49.693Z,100057.13
2022-12-18T11:44:04.003Z,100054.38
2022-12-18T11:47:23.803Z,100043.19
2022-12-18T11:50:48.571Z,100047.06
2022-12-18T11:53:58.324Z,100047.66
2022-12-18T11:57:17.853Z,100037.47
2022-12-18T12:00:29.058Z,100024.31
2022-12-18T12:03:58.951Z,100017.50
2022-12-18T12:07:20.206Z,100022.97
2022-12-18T12:10:43.310Z,100024.38
2022-12-18T12:14:07.012Z,100029.84
2022-12-18T12:17:28.179Z,100031.66
2022-12-18T12:20:49.428Z,100032.53
2022-12-18T12:24:07.328Z,100020.84
2022-12-18T12:27:25.976Z,100020.19
2022-12-18T12:30:46.963Z,100019.78
2022-12-18T12:34:09.774Z,100009.72
2022-12-18T12:37:30.800Z,99995.59
2022-12-18T12:40:58.789Z,99989.91
2022-12-18T12:44:18.531Z,99993.78
2022-12-18T12:47:34.100Z,99988.75
2022-12-18T12:50:46.132Z,99977.56
2022-12-18T12:53:58.362Z,99978.72
2022-12-18T12:57:14.509Z,99981.69
2022-12-18T13:00:27.213Z,99974.63
2022-12-18T13:03:47.178Z,99967.78
2022-12-18T13:07:05.974Z,99962.78
2022-12-18T13:10:27.924Z,99957.50
2022-12-18T13:13:50.571Z,99954.09
2022-12-18T13:17:18.129Z,99944.72
2022-12-18T13:20:35.679Z,99954.31
2022-12-18T13:23:47.441Z,99958.63
2022-12-18T13:26:57.150Z,99962.31
2022-12-18T13:30:44.797Z,99957.06
2022-12-18T13:34:26.306Z,99950.00
2022-12-18T13:37:46.016Z,99943.38
2022-12-18T13:40:59.958Z,99936.06
2022-12-18T13:44:14.670Z,99943.13
2022-12-18T13:47:30.077Z,99937.91
2022-12-18T13:50:40.987Z,99939.97
2022-12-18T13:53:53.364Z,99943.84
2022-12-18T13:57:05.840Z,99946.56
2022-12-18T14:00:28.029Z,99929.47
2022-12-18T14:03:37.877Z,99925.81
2022-12-18T14:06:48.426Z,99933.09
2022-12-18T14:10:12.056Z,99933.38
2022-12-18T14:13:34.918Z,99940.66
2022-12-18T14:16:44.959Z,99937.88
2022-12-18T14:19:55.619Z,99942.91
2022-12-18T14:23:05.343Z,99937.91
2022-12-18T14:26:24.375Z,99937.47
2022-12-18T14:29:37.513Z,99939.50
2022-12-18T14:33:01.911Z,99933.38
2022-12-18T14:36:18.528Z,99937.22
2022-12-18T14:39:28.319Z,99933.38
2022-12-18T14:42:38.715Z,99942.44
2022-12-18T14:45:50.813Z,99932.22
2022-12-18T14:49:02.246Z,99935.16
2022-12-18T14:52:23.075Z,99936.75
2022-12-18T14:55:33.295Z,99938.56
2022-12-18T14:58:48.306Z,99946.78
2022-12-18T15:02:06.276Z,99933.31
2022-12-18T15:05:21.627Z,99929.91
2022-12-18T15:08:37.790Z,99927.16
2022-12-18T15:11:49.896Z,99926.72
2022-12-18T15:15:00.970Z,99919.41
2022-12-18T15:18:18.126Z,99920.31
2022-12-18T15:21:32.784Z,99915.97
2022-12-18T15:24:43.683Z,99927.13
2022-12-18T15:27:54.882Z,99933.50
2022-12-18T15:31:09.335Z,99928.00
2022-12-18T15:34:25.212Z,99930.47
2022-12-18T15:37:36.076Z,99923.44
2022-12-18T15:40:47.616Z,99935.91
2022-12-18T15:43:59.194Z,99929.28
2022-12-18T15:47:15.642Z,99934.75
2022-12-18T15:50:28.454Z,99937.97
2022-12-18T15:53:42.134Z,99943.44
2022-12-18T15:57:06.687Z,99937.53
2022-12-18T16:00:18.577Z,99941.88
2022-12-18T16:03:29.377Z,99934.75
2022-12-18T16:07:12.782Z,99935.72
2022-12-18T16:10:14.325Z,99929.34
2022-12-18T16:13:25.513Z,99933.44
2022-12-18T16:16:36.925Z,99926.19
2022-12-18T16:19:49.857Z,99921.63
2022-12-18T16:23:02.720Z,99926.44
2022-12-18T16:26:14.068Z,99918.91
2022-12-18T16:29:28.467Z,99918.91
2022-12-18T16:32:39.917Z,99920.72
2022-12-18T16:35:55.200Z,99916.16
2022-12-18T16:39:08.051Z,99903.41
2022-12-18T16:42:21.706Z,99911.19
2022-12-18T16:45:34.375Z,99905.25
2022-12-18T16:48:45.919Z,99899.34
2022-12-18T16:51:57.847Z,99892.25
2022-12-18T16:55:13.631Z,99887.50
2022-12-18T16:58:24.774Z,99894.31
2022-12-18T17:01:36.020Z,99895.22
2022-12-18T17:04:47.861Z,99894.31
2022-12-18T17:07:59.045Z,99891.81
2022-12-18T17:11:11.636Z,99880.44
2022-12-18T17:14:24.623Z,99877.94
2022-12-18T17:17:36.906Z,99879.28
2022-12-18T17:20:48.705Z,99886.34
2022-12-18T17:24:02.852Z,99883.16
2022-12-18T17:27:16.190Z,99886.34
2022-12-18T17:30:27.373Z,99886.59
2022-12-18T17:33:38.143Z,99873.84
2022-12-18T17:36:50.949Z,99869.72
2022-12-18T17:40:00.713Z,99860.59
2022-12-18T17:43:13.255Z,99860.59
2022-12-18T17:46:24.396Z,99865.63
2022-12-18T17:49:34.600Z,99867.00
2022-12-18T17:52:44.872Z,99860.38
2022-12-18T17:55:56.025Z,99862.44
2022-12-18T17:59:07.122Z,99861.97
2022-12-18T18:02:17.201Z,99854.25
2022-12-18T18:05:27.714Z,99857.88
2022-12-18T18:08:38.965Z,99853.31
2022-12-18T18:12:00.791Z,99862.91
2022-12-18T18:15:13.883Z,99858.31
2022-12-18T18:18:25.338Z,99860.63
2022-12-18T18:21:39.957Z,99861.50
2022-12-18T18:24:51.449Z,99858.53
2022-12-18T18:28:01.856Z,99843.22
2022-12-18T18:31:16.700Z,99846.84
2022-12-18T18:34:29.819Z,99837.72
2022-12-18T18:37:40.739Z,99832.25
2022-12-18T18:41:00.432Z,99839.97
2022-12-18T18:44:12.277Z,99830.41
2022-12-18T18:47:25.212Z,99823.06
2022-12-18T18:50:35.413Z,99822.59
2022-12-18T18:53:47.304Z,99825.31
2022-12-18T18:57:19.938Z,99826.69
2022-12-18T19:00:28.395Z,99825.31
2022-12-18T19:03:41.471Z,99814.75
2022-12-18T19:06:52.045Z,99806.56
2022-12-18T19:10:04.482Z,99804.22
2022-12-18T19:13:21.363Z,99802.41
2022-12-18T19:16:31.571Z,99805.38
2022-12-18T19:19:43.306Z,99798.69
2022-12-18T19:22:55.475Z,99791.81
2022-12-18T19:26:27.337Z,99797.78
2022-12-18T19:29:37.651Z,99789.06
2022-12-18T19:32:47.673Z,99788.09
2022-12-18T19:35:58.634Z,99779.81
2022-12-18T19:39:11.686Z,99776.13
2022-12-18T19:42:28.194Z,99783.41
2022-12-18T19:45:42.312Z,99776.38
2022-12-18T19:48:53.657Z,99774.31
2022-12-18T19:52:04.754Z,99767.03
2022-12-18T19:55:15.705Z,99774.75
2022-12-18T19:58:25.614Z,99769.50
2022-12-18T20:01:36.784Z,99773.44
2022-12-18T20:04:48.439Z,99774.16
2022-12-18T20:07:59.915Z,99767.47
2022-12-18T20:11:11.740Z,99761.44
2022-12-18T20:14:23.551Z,99765.59
2022-12-18T20:17:33.522Z,99761.13
2022-12-18T20:20:43.647Z,99760.19
2022-12-18T20:23:55.791Z,99761.31
2022-12-18T20:27:09.774Z,99765.44
2022-12-18T20:30:22.302Z,99760.34
2022-12-18T20:33:32.383Z,99756.25
